createdAt,value
2022-11-30T00:01:29.202Z,7.93
2022-11-30T00:04:02.158Z,5.77
2022-11-30T00:06:46.360Z,5.50
2022-11-30T00:09:30.777Z,5.60
2022-11-30T00:15:30.332Z,6.23
2022-11-30T00:18:22.871Z,5.33
2022-11-30T00:21:09.085Z,6.77
2022-11-30T00:23:43.503Z,4.97
2022-11-30T00:26:26.546Z,5.70
2022-11-30T00:29:14.388Z,6.23
2022-11-30T00:32:03.052Z,5.50
2022-11-30T00:34:36.052Z,6.10
2022-11-30T00:37:07.490Z,6.73
2022-11-30T00:39:47.047Z,5.83
2022-11-30T00:45:10.238Z,5.70
2022-11-30T00:47:39.112Z,5.73
2022-11-30T00:50:10.243Z,5.63
2022-11-30T00:52:57.551Z,6.50
2022-11-30T00:55:46.631Z,5.63
2022-11-30T00:58:28.081Z,6.37
2022-11-30T01:01:32.242Z,6.10
2022-11-30T01:04:13.434Z,7.30
2022-11-30T01:07:11.070Z,5.80
2022-11-30T01:10:12.040Z,5.47
2022-11-30T01:12:47.877Z,7.67
2022-11-30T01:15:42.745Z,5.80
2022-11-30T01:18:18.327Z,7.40
2022-11-30T01:21:16.042Z,6.20
2022-11-30T01:24:01.882Z,6.77
2022-11-30T01:27:06.519Z,7.87
2022-11-30T01:29:54.738Z,8.90
2022-11-30T01:32:25.462Z,5.90
2022-11-30T01:35:12.938Z,6.70
2022-11-30T01:37:47.425Z,7.73
2022-11-30T01:40:22.873Z,6.57
2022-11-30T01:42:57.943Z,5.30
2022-11-30T01:45:29.044Z,6.60
2022-11-30T01:48:05.021Z,6.87
2022-11-30T01:50:53.836Z,6.30
2022-11-30T01:53:41.404Z,6.47
2022-11-30T01:56:26.895Z,7.27
2022-11-30T01:59:48.694Z,5.97
2022-11-30T02:02:23.663Z,6.97
2022-11-30T02:05:19.782Z,6.47
2022-11-30T02:07:53.488Z,6.70
2022-11-30T02:13:57.910Z,6.30
2022-11-30T02:16:59.678Z,7.50
2022-11-30T02:23:47.970Z,7.50
2022-11-30T02:26:39.574Z,7.50
2022-11-30T02:29:47.749Z,7.70
2022-11-30T02:32:23.408Z,7.70
2022-11-30T02:35:08.546Z,7.17
2022-11-30T02:37:46.529Z,6.10
2022-11-30T02:40:32.219Z,6.33
2022-11-30T02:43:16.132Z,6.67
2022-11-30T02:46:17.864Z,6.87
2022-11-30T02:48:50.972Z,6.30
2022-11-30T02:51:50.084Z,6.73
2022-11-30T03:00:29.655Z,5.13
2022-11-30T03:03:13.731Z,5.80
2022-11-30T03:05:51.077Z,4.87
2022-11-30T03:08:44.004Z,6.30
2022-11-30T03:11:26.585Z,5.87
2022-11-30T03:14:06.669Z,6.07
2022-11-30T03:16:51.325Z,5.60
2022-11-30T03:19:25.346Z,5.70
2022-11-30T03:22:00.450Z,6.17
2022-11-30T03:24:43.416Z,6.83
2022-11-30T03:27:12.458Z,6.20
2022-11-30T03:29:40.941Z,6.90
2022-11-30T03:32:30.110Z,7.13
2022-11-30T03:35:21.282Z,7.17
2022-11-30T03:37:49.550Z,5.90
2022-11-30T03:40:39.373Z,7.80
2022-11-30T03:43:08.085Z,6.13
2022-11-30T03:45:38.411Z,5.80
2022-11-30T03:48:07.008Z,5.83
2022-11-30T03:50:41.954Z,5.83
2022-11-30T03:53:10.401Z,6.93
2022-11-30T03:55:38.497Z,5.27
2022-11-30T03:58:06.864Z,7.30
2022-11-30T04:00:35.348Z,5.50
2022-11-30T04:03:03.689Z,6.93
2022-11-30T04:05:31.967Z,5.33
2022-11-30T04:08:01.743Z,5.10
2022-11-30T04:10:33.066Z,5.40
2022-11-30T04:13:01.517Z,5.87
2022-11-30T04:15:37.442Z,5.53
2022-11-30T04:18:05.902Z,5.17
2022-11-30T04:20:40.092Z,6.27
2022-11-30T04:23:10.350Z,4.40
2022-11-30T04:25:39.373Z,6.17
2022-11-30T04:28:08.085Z,6.30
2022-11-30T04:30:37.413Z,6.30
2022-11-30T04:33:06.326Z,5.90
2022-11-30T04:35:35.330Z,6.03
2022-11-30T04:38:03.777Z,7.10
2022-11-30T04:40:33.448Z,6.40
2022-11-30T04:43:01.946Z,4.50
2022-11-30T04:45:35.067Z,5.27
2022-11-30T04:48:03.664Z,5.53
2022-11-30T04:50:32.081Z,7.70
2022-11-30T04:53:00.413Z,5.10
2022-11-30T04:55:30.204Z,5.23
2022-11-30T04:57:59.810Z,6.17
2022-11-30T05:00:28.039Z,5.30
2022-11-30T05:02:57.497Z,5.23
2022-11-30T05:05:25.720Z,6.67
2022-11-30T05:07:58.270Z,6.30
2022-11-30T05:10:27.756Z,5.70
2022-11-30T05:12:55.974Z,5.20
2022-11-30T05:15:25.904Z,5.47
2022-11-30T05:17:54.246Z,4.37
2022-11-30T05:20:22.443Z,5.37
2022-11-30T05:22:50.929Z,5.73
2022-11-30T05:25:19.161Z,4.83
2022-11-30T05:27:47.475Z,5.73
2022-11-30T05:30:16.694Z,4.77
2022-11-30T05:32:46.348Z,5.13
2022-11-30T05:35:14.690Z,4.10
2022-11-30T05:37:43.334Z,6.10
2022-11-30T05:40:12.159Z,4.47
2022-11-30T05:42:40.383Z,4.17
2022-11-30T05:45:09.752Z,5.33
2022-11-30T05:47:37.980Z,4.90
2022-11-30T05:50:09.709Z,5.87
2022-11-30T05:52:38.043Z,3.80
2022-11-30T05:55:06.867Z,3.33
2022-11-30T05:57:37.803Z,4.67
2022-11-30T06:00:07.757Z,4.87
2022-11-30T06:02:36.109Z,4.60
2022-11-30T06:05:04.732Z,3.80
2022-11-30T06:07:36.312Z,4.00
2022-11-30T06:10:04.859Z,4.17
2022-11-30T06:12:33.114Z,4.27
2022-11-30T06:15:02.292Z,5.07
2022-11-30T06:17:30.603Z,4.30
2022-11-30T06:19:59.341Z,4.07
2022-11-30T06:22:27.394Z,5.40
2022-11-30T06:24:56.885Z,5.23
2022-11-30T06:27:24.939Z,3.80
2022-11-30T06:29:55.463Z,5.20
2022-11-30T06:32:23.419Z,4.10
2022-11-30T06:34:51.550Z,4.03
2022-11-30T06:37:19.658Z,3.97
2022-11-30T06:40:06.125Z,3.60
2022-11-30T06:42:37.880Z,4.33
2022-11-30T06:45:07.554Z,4.90
2022-11-30T06:47:35.797Z,3.17
2022-11-30T06:50:04.113Z,3.40
2022-11-30T06:52:33.246Z,4.50
2022-11-30T06:55:01.576Z,4.20
2022-11-30T06:57:30.193Z,4.50
2022-11-30T06:59:59.959Z,5.10
2022-11-30T07:02:27.977Z,4.47
2022-11-30T07:04:56.230Z,4.77
2022-11-30T07:07:26.869Z,3.70
2022-11-30T07:09:55.240Z,3.80
2022-11-30T07:12:23.399Z,3.20
2022-11-30T07:14:52.972Z,4.17
2022-11-30T07:17:22.819Z,3.33
2022-11-30T07:19:50.847Z,4.07
2022-11-30T07:22:18.862Z,4.50
2022-11-30T07:25:04.579Z,5.07
2022-11-30T07:27:32.913Z,3.53
2022-11-30T07:30:01.159Z,4.57
2022-11-30T07:32:30.923Z,5.00
2022-11-30T07:34:59.094Z,5.37
2022-11-30T07:37:27.792Z,4.90
2022-11-30T07:39:56.232Z,5.80
2022-11-30T07:42:24.514Z,5.10
2022-11-30T07:44:58.214Z,5.83
2022-11-30T07:47:27.016Z,4.57
2022-11-30T07:49:57.420Z,4.60
2022-11-30T07:52:25.843Z,5.17
2022-11-30T07:54:54.055Z,6.73
2022-11-30T07:57:22.087Z,6.13
2022-11-30T07:59:50.492Z,5.63
2022-11-30T08:02:19.209Z,4.50
2022-11-30T08:04:47.846Z,5.77
2022-11-30T08:07:17.963Z,4.70
2022-11-30T08:09:46.396Z,5.40
2022-11-30T08:12:14.626Z,5.40
2022-11-30T08:15:17.397Z,4.90
2022-11-30T08:17:30.961Z,5.00
2022-11-30T08:19:59.190Z,5.57
2022-11-30T08:22:28.943Z,4.80
2022-11-30T08:24:57.059Z,5.37
2022-11-30T08:27:25.127Z,5.27
2022-11-30T08:29:53.360Z,4.23
2022-11-30T08:32:32.859Z,4.90
2022-11-30T08:35:08.354Z,5.10
2022-11-30T08:37:39.032Z,4.50
2022-11-30T08:40:08.485Z,7.13
2022-11-30T08:42:36.495Z,5.00
2022-11-30T08:45:12.532Z,5.27
2022-11-30T08:47:51.053Z,4.73
2022-11-30T08:50:19.193Z,5.97
2022-11-30T08:52:51.162Z,5.77
2022-11-30T08:55:19.146Z,5.27
2022-11-30T08:57:59.690Z,5.30
2022-11-30T09:00:27.801Z,5.00
2022-11-30T09:02:57.427Z,4.77
2022-11-30T09:05:26.066Z,4.53
2022-11-30T09:08:02.852Z,5.47
2022-11-30T09:10:30.906Z,5.10
2022-11-30T09:12:59.077Z,5.17
2022-11-30T09:15:27.248Z,5.07
2022-11-30T09:17:55.561Z,4.63
2022-11-30T09:20:36.125Z,4.57
2022-11-30T09:23:05.724Z,5.30
2022-11-30T09:25:33.891Z,6.40
2022-11-30T09:28:02.073Z,5.07
2022-11-30T09:30:37.390Z,5.20
2022-11-30T09:33:24.666Z,4.73
2022-11-30T09:35:59.393Z,6.17
2022-11-30T09:38:32.754Z,4.80
2022-11-30T09:41:03.307Z,5.43
2022-11-30T09:43:44.478Z,4.77
2022-11-30T09:46:12.939Z,5.43
2022-11-30T09:48:54.626Z,5.57
2022-11-30T09:51:27.805Z,3.90
2022-11-30T09:54:01.865Z,5.57
2022-11-30T09:56:33.198Z,4.43
2022-11-30T09:59:06.156Z,5.70
2022-11-30T10:01:44.935Z,5.00
2022-11-30T10:04:22.950Z,3.70
2022-11-30T10:07:03.463Z,5.37
2022-11-30T10:10:02.875Z,4.80
2022-11-30T10:12:43.009Z,3.37
2022-11-30T10:15:22.118Z,4.50
2022-11-30T10:21:01.850Z,4.47
2022-11-30T10:23:48.495Z,4.50
2022-11-30T10:26:22.389Z,4.73
2022-11-30T10:28:52.850Z,4.83
2022-11-30T10:31:28.435Z,4.90
2022-11-30T10:34:07.222Z,4.00
2022-11-30T10:36:43.258Z,4.60
2022-11-30T10:39:21.812Z,4.00
2022-11-30T10:42:06.291Z,3.70
2022-11-30T10:44:40.066Z,4.03
2022-11-30T10:47:14.574Z,3.23
2022-11-30T10:49:47.660Z,3.83
2022-11-30T10:52:22.781Z,2.30
2022-11-30T10:55:02.306Z,4.27
2022-11-30T10:57:34.352Z,2.67
2022-11-30T11:00:06.717Z,3.07
2022-11-30T11:02:41.778Z,2.93
2022-11-30T11:05:17.188Z,3.17
2022-11-30T11:07:52.492Z,3.00
2022-11-30T11:10:22.922Z,2.93
2022-11-30T11:12:54.887Z,3.00
2022-11-30T11:15:25.302Z,2.63
2022-11-30T11:17:54.320Z,2.47
2022-11-30T11:20:39.014Z,2.20
2022-11-30T11:23:08.580Z,3.13
2022-11-30T11:25:47.691Z,3.60
2022-11-30T11:28:20.246Z,3.97
2022-11-30T11:30:52.152Z,4.10
2022-11-30T11:33:23.443Z,4.90
2022-11-30T11:35:53.049Z,4.90
2022-11-30T11:38:29.896Z,5.17
2022-11-30T11:41:01.181Z,4.40
2022-11-30T11:43:33.554Z,4.70
2022-11-30T11:46:11.358Z,5.50
2022-11-30T11:48:41.920Z,3.83
2022-11-30T11:51:25.396Z,5.10
2022-11-30T11:53:56.940Z,4.77
2022-11-30T11:56:27.922Z,5.50
2022-11-30T11:59:02.317Z,3.53
2022-11-30T12:01:47.970Z,4.47
2022-11-30T12:04:49.183Z,4.40
2022-11-30T12:07:25.624Z,3.73
2022-11-30T12:10:16.490Z,5.67
2022-11-30T12:12:55.098Z,5.07
2022-11-30T12:15:33.484Z,5.07
2022-11-30T12:18:14.329Z,5.03
2022-11-30T12:20:53.723Z,4.80
2022-11-30T12:23:37.893Z,4.50
2022-11-30T12:26:18.128Z,5.57
2022-11-30T12:28:59.906Z,4.97
2022-11-30T12:31:39.993Z,4.77
2022-11-30T12:34:17.271Z,4.50
2022-11-30T12:36:57.349Z,4.90
2022-11-30T12:39:34.758Z,5.07
2022-11-30T12:42:09.269Z,4.67
2022-11-30T12:44:50.608Z,4.00
2022-11-30T12:47:53.840Z,4.67
2022-11-30T12:50:44.203Z,4.33
2022-11-30T12:53:21.997Z,4.63
2022-11-30T12:56:10.378Z,4.87
2022-11-30T12:58:44.598Z,3.87
2022-11-30T13:01:23.972Z,3.57
2022-11-30T13:04:00.447Z,4.63
2022-11-30T13:06:33.235Z,3.83
2022-11-30T13:09:07.018Z,3.10
2022-11-30T13:11:44.633Z,4.70
2022-11-30T13:14:16.389Z,3.53
2022-11-30T13:16:45.337Z,2.93
2022-11-30T13:19:29.362Z,3.40
2022-11-30T13:22:03.943Z,3.23
2022-11-30T13:24:38.761Z,3.40
2022-11-30T13:27:20.687Z,3.13
2022-11-30T13:30:09.022Z,3.80
2022-11-30T13:33:18.822Z,3.03
2022-11-30T13:35:55.757Z,3.97
2022-11-30T13:38:39.502Z,4.47
2022-11-30T13:41:09.452Z,4.50
2022-11-30T13:43:42.874Z,3.87
2022-11-30T13:46:17.174Z,4.90
2022-11-30T13:48:46.998Z,4.00
2022-11-30T13:51:36.190Z,4.27
2022-11-30T13:54:38.466Z,4.60
2022-11-30T13:57:17.624Z,4.37
2022-11-30T13:59:51.560Z,3.80
2022-11-30T14:05:46.607Z,4.40
2022-11-30T14:08:33.753Z,3.90
2022-11-30T14:11:39.910Z,4.33
2022-11-30T14:14:45.665Z,3.97
2022-11-30T14:17:22.180Z,4.00
2022-11-30T14:19:53.564Z,4.07
2022-11-30T14:22:22.920Z,5.70
2022-11-30T14:24:53.218Z,4.73
2022-11-30T14:27:25.080Z,5.13
2022-11-30T14:29:58.163Z,5.90
2022-11-30T14:32:36.278Z,4.70
2022-11-30T14:35:10.957Z,6.27
2022-11-30T14:37:44.744Z,4.87
2022-11-30T14:40:20.595Z,5.70
2022-11-30T14:42:51.250Z,5.73
2022-11-30T14:45:24.426Z,5.57
2022-11-30T14:47:54.881Z,5.40
2022-11-30T14:50:26.022Z,4.90
2022-11-30T14:53:04.362Z,5.40
2022-11-30T14:55:40.278Z,6.43
2022-11-30T14:58:20.268Z,5.30
2022-11-30T15:00:53.343Z,6.17
2022-11-30T15:03:26.987Z,4.47
2022-11-30T15:05:58.942Z,5.07
2022-11-30T15:08:35.586Z,4.53
2022-11-30T15:11:10.959Z,5.50
2022-11-30T15:13:51.056Z,5.90
2022-11-30T15:16:22.116Z,5.03
2022-11-30T15:19:01.746Z,4.67
2022-11-30T15:21:34.125Z,4.80
2022-11-30T15:24:05.812Z,5.07
2022-11-30T15:32:56.337Z,5.33
2022-11-30T15:35:43.903Z,8.13
2022-11-30T15:38:20.977Z,6.63
2022-11-30T15:40:54.530Z,5.60
2022-11-30T15:43:26.275Z,14.53
2022-11-30T15:46:25.505Z,5.93
2022-11-30T15:49:07.895Z,5.93
2022-11-30T15:51:41.087Z,4.73
2022-11-30T15:54:20.282Z,6.50
2022-11-30T15:56:57.515Z,5.27
2022-11-30T15:59:38.267Z,6.70
2022-11-30T16:02:08.974Z,4.93
2022-11-30T16:05:23.759Z,5.93
2022-11-30T16:07:55.060Z,4.60
2022-11-30T16:10:25.771Z,6.97
2022-11-30T16:12:56.378Z,6.33
2022-11-30T16:15:26.673Z,5.10
2022-11-30T16:17:57.270Z,5.60
2022-11-30T16:20:27.157Z,5.63
2022-11-30T16:22:55.222Z,5.30
2022-11-30T16:25:25.684Z,4.83
2022-11-30T16:27:54.219Z,5.70
2022-11-30T16:30:31.501Z,6.40
2022-11-30T16:33:01.776Z,5.70
2022-11-30T16:35:37.713Z,6.87
2022-11-30T16:38:06.814Z,5.50
2022-11-30T16:40:38.804Z,5.50
2022-11-30T16:43:07.579Z,5.90
2022-11-30T16:45:38.068Z,4.47
2022-11-30T16:48:06.644Z,5.73
2022-11-30T16:50:36.534Z,5.10
2022-11-30T16:53:06.070Z,5.33
2022-11-30T16:55:50.536Z,5.50
2022-11-30T16:58:19.121Z,4.40
2022-11-30T17:00:47.434Z,6.70
2022-11-30T17:03:22.095Z,5.90
2022-11-30T17:05:51.674Z,4.97
2022-11-30T17:08:19.750Z,4.93
2022-11-30T17:10:53.129Z,4.50
2022-11-30T17:13:23.047Z,6.50
2022-11-30T17:15:51.844Z,4.67
2022-11-30T17:18:20.469Z,6.20
2022-11-30T17:24:05.649Z,4.30
2022-11-30T17:26:33.844Z,5.07
2022-11-30T17:29:02.472Z,5.30
2022-11-30T17:31:30.691Z,4.80
2022-11-30T17:33:59.192Z,4.47
2022-11-30T17:36:29.429Z,5.10
2022-11-30T17:38:57.710Z,4.80
2022-11-30T17:41:32.307Z,4.40
2022-11-30T17:44:01.890Z,5.33
2022-11-30T17:46:30.252Z,6.40
2022-11-30T17:48:58.570Z,5.80
2022-11-30T17:51:34.387Z,5.73
2022-11-30T17:54:03.157Z,5.57
2022-11-30T17:56:31.191Z,4.73
2022-11-30T17:59:01.021Z,4.30
2022-11-30T18:01:29.303Z,4.30
2022-11-30T18:03:59.033Z,5.60
2022-11-30T18:06:32.533Z,4.90
2022-11-30T18:09:00.798Z,4.67
2022-11-30T18:11:29.000Z,4.80
2022-11-30T18:14:00.453Z,5.70
2022-11-30T18:16:30.566Z,4.97
2022-11-30T18:19:00.345Z,4.93
2022-11-30T18:21:31.301Z,4.33
2022-11-30T18:23:59.851Z,5.13
2022-11-30T18:26:28.706Z,7.83
2022-11-30T18:28:58.868Z,5.13
2022-11-30T18:31:27.803Z,4.50
2022-11-30T18:33:57.295Z,5.90
2022-11-30T18:36:26.009Z,5.93
2022-11-30T18:38:59.462Z,6.20
2022-11-30T18:41:30.141Z,5.70
2022-11-30T18:43:58.580Z,6.13
2022-11-30T18:46:27.730Z,6.47
2022-11-30T18:48:56.423Z,4.73
2022-11-30T18:51:43.566Z,4.97
2022-11-30T18:54:13.327Z,5.47
2022-11-30T18:56:41.526Z,4.13
2022-11-30T18:59:12.562Z,5.50
2022-11-30T19:01:43.687Z,6.10
2022-11-30T19:04:12.826Z,6.47
2022-11-30T19:06:47.143Z,7.37
2022-11-30T19:09:19.012Z,5.93
2022-11-30T19:11:47.681Z,5.10
2022-11-30T19:14:17.734Z,6.37
2022-11-30T19:16:51.583Z,5.63
2022-11-30T19:19:19.941Z,6.27
2022-11-30T19:21:53.091Z,4.90
2022-11-30T19:24:22.650Z,6.33
2022-11-30T19:26:52.751Z,6.37
2022-11-30T19:29:21.341Z,6.07
2022-11-30T19:31:49.847Z,5.40
2022-11-30T19:34:30.749Z,10.40
2022-11-30T19:36:58.920Z,6.00
2022-11-30T19:39:28.774Z,5.70
2022-11-30T19:41:59.507Z,6.40
2022-11-30T19:44:27.803Z,5.70
2022-11-30T19:47:04.957Z,5.10
2022-11-30T19:49:33.101Z,5.27
2022-11-30T19:52:01.703Z,8.67
2022-11-30T19:54:31.555Z,7.00
2022-11-30T19:57:07.431Z,6.60
2022-11-30T19:59:35.746Z,6.80
2022-11-30T20:02:04.437Z,5.80
2022-11-30T20:04:32.907Z,6.23
2022-11-30T20:07:08.742Z,6.70
2022-11-30T20:09:53.159Z,7.07
2022-11-30T20:12:22.252Z,5.60
2022-11-30T20:14:52.280Z,7.13
2022-11-30T20:17:20.587Z,4.90
2022-11-30T20:19:53.275Z,4.50
2022-11-30T20:22:21.433Z,5.03
2022-11-30T20:24:53.086Z,6.10
2022-11-30T20:27:24.845Z,4.97
2022-11-30T20:29:57.786Z,6.77
2022-11-30T20:32:27.949Z,6.97
2022-11-30T20:35:03.475Z,6.53
2022-11-30T20:37:33.966Z,8.40
2022-11-30T20:40:07.546Z,5.60
2022-11-30T20:42:43.508Z,6.27
2022-11-30T20:45:17.397Z,6.40
2022-11-30T20:47:50.868Z,5.47
2022-11-30T20:50:20.851Z,7.60
2022-11-30T20:52:49.585Z,6.70
2022-11-30T20:55:19.849Z,6.73
2022-11-30T20:57:50.069Z,6.00
2022-11-30T21:00:19.155Z,5.00
2022-11-30T21:02:47.557Z,7.07
2022-11-30T21:05:18.990Z,5.90
2022-11-30T21:07:49.708Z,6.30
2022-11-30T21:10:18.189Z,6.43
2022-11-30T21:12:46.626Z,6.20
2022-11-30T21:15:17.339Z,6.87
2022-11-30T21:17:45.969Z,6.57
2022-11-30T21:20:17.013Z,7.07
2022-11-30T21:22:46.612Z,6.00
2022-11-30T21:25:20.442Z,5.57
2022-11-30T21:27:52.545Z,6.83
2022-11-30T21:30:23.099Z,6.13
2022-11-30T21:32:53.843Z,7.07
2022-11-30T21:35:22.023Z,5.90
2022-11-30T21:37:50.294Z,7.20
2022-11-30T21:40:18.861Z,5.77
2022-11-30T21:42:48.038Z,6.40
2022-11-30T21:45:19.521Z,7.83
2022-11-30T21:47:49.201Z,8.50
2022-11-30T21:50:19.885Z,6.07
2022-11-30T21:52:50.615Z,6.87
2022-11-30T21:55:39.232Z,6.50
2022-11-30T21:58:07.669Z,6.53
2022-11-30T22:00:35.997Z,6.83
2022-11-30T22:03:05.991Z,5.83
2022-11-30T22:05:34.295Z,6.80
2022-11-30T22:08:03.113Z,5.90
2022-11-30T22:10:31.219Z,6.20
2022-11-30T22:12:59.294Z,6.10
2022-11-30T22:15:27.352Z,4.80
2022-11-30T22:17:55.604Z,6.40
2022-11-30T22:20:33.398Z,6.10
2022-11-30T22:23:01.584Z,6.10
2022-11-30T22:25:38.587Z,6.80
2022-11-30T22:28:07.181Z,6.70
2022-11-30T22:30:35.985Z,7.20
2022-11-30T22:33:04.741Z,7.30
2022-11-30T22:35:36.647Z,6.30
2022-11-30T22:38:04.917Z,6.67
2022-11-30T22:40:33.382Z,7.57
2022-11-30T22:43:01.712Z,7.40
2022-11-30T22:45:30.891Z,6.90
2022-11-30T22:47:59.474Z,7.50
2022-11-30T22:50:30.112Z,8.63
2022-11-30T22:53:03.587Z,6.33
2022-11-30T22:55:33.658Z,7.20
2022-11-30T22:58:02.176Z,7.10
2022-11-30T23:00:30.367Z,7.00
2022-11-30T23:02:59.870Z,6.80
2022-11-30T23:05:30.149Z,7.17
2022-11-30T23:08:00.219Z,6.83
2022-11-30T23:10:28.736Z,6.80
2022-11-30T23:12:59.907Z,7.80
2022-11-30T23:15:28.576Z,7.30
2022-11-30T23:17:56.765Z,8.47
2022-11-30T23:20:25.852Z,7.80
2022-11-30T23:22:54.678Z,7.67
2022-11-30T23:25:24.887Z,7.57
2022-11-30T23:27:53.727Z,6.93
2022-11-30T23:30:21.839Z,7.63
2022-11-30T23:32:50.362Z,7.50
2022-11-30T23:35:18.837Z,6.80
2022-11-30T23:37:47.123Z,7.17
2022-11-30T23:40:15.588Z,6.80
2022-11-30T23:42:45.666Z,6.80
2022-11-30T23:45:13.872Z,8.50
2022-11-30T23:47:42.226Z,6.57
2022-11-30T23:50:11.560Z,8.33
2022-11-30T23:52:39.926Z,7.80
2022-11-30T23:55:09.481Z,6.93
2022-11-30T23:57:37.669Z,9.10
